Time;durP1;ratioP1;P1;durP2;ratioP2;P2;SDS_P1;SDS_P2;PMS_P1;PMS_P2;Temp;Humidity;BMP_temperature;BMP_pressure;BME280_temperature;BME280_humidity;BME280_pressure;Samples;Min_cycle;Max_cycle;Signal;HPM_P1;HPM_P2
2022/10/08 00:00:05;;;;;;;31.48;22.75;;;;;;;12.37;71.58;98917.44;5089641;28;20036;-78
2022/10/08 00:02:30;;;;;;;31.30;22.67;;;;;;;12.31;71.76;98915.84;5089023;28;20035;-83
2022/10/08 00:04:56;;;;;;;29.42;21.33;;;;;;;12.25;71.56;98909.59;5089739;28;20020;-82
2022/10/08 00:07:22;;;;;;;30.23;21.52;;;;;;;12.20;71.56;98912.44;5089599;28;20047;-83
2022/10/08 00:09:47;;;;;;;30.58;20.90;;;;;;;12.16;71.36;98912.19;5089346;28;20460;-86
2022/10/08 00:12:12;;;;;;;29.90;20.10;;;;;;;12.11;72.07;98915.00;5084151;28;20468;-84
2022/10/08 00:14:39;;;;;;;25.35;18.65;;;;;;;12.06;71.84;98913.16;5083917;28;20051;-84
2022/10/08 00:17:04;;;;;;;29.67;20.67;;;;;;;12.03;72.01;98908.25;5071515;28;20032;-83
2022/10/08 00:19:30;;;;;;;29.13;20.85;;;;;;;11.99;71.40;98901.69;5084915;28;20065;-83
2022/10/08 00:21:55;;;;;;;28.77;21.00;;;;;;;11.97;71.42;98908.59;5084146;28;20032;-82
2022/10/08 00:24:22;;;;;;;31.80;21.70;;;;;;;11.93;71.42;98902.84;5080019;28;20439;-83
2022/10/08 00:26:47;;;;;;;29.30;20.60;;;;;;;11.90;71.75;98903.44;5074579;28;20051;-83
2022/10/08 00:29:16;;;;;;;32.75;21.70;;;;;;;11.87;71.91;98899.34;5078586;28;20464;-83
2022/10/08 00:31:45;;;;;;;27.55;20.83;;;;;;;11.85;71.47;98896.06;5074326;28;20112;-82
2022/10/08 00:34:14;;;;;;;32.50;22.77;;;;;;;11.84;71.45;98888.94;5079052;28;20134;-84
2022/10/08 00:36:40;;;;;;;31.58;22.48;;;;;;;11.83;72.07;98894.72;5077241;28;20021;-84
2022/10/08 00:39:09;;;;;;;34.58;23.05;;;;;;;11.82;72.06;98893.09;5079904;28;20070;-83
2022/10/08 00:41:37;;;;;;;35.88;23.45;;;;;;;11.79;71.56;98891.75;5077931;28;20036;-84
2022/10/08 00:44:41;;;;;;;33.67;22.65;;;;;;;11.77;71.73;98894.81;5078435;28;20019;-84
2022/10/08 00:47:15;;;;;;;32.53;22.75;;;;;;;11.76;72.07;98886.84;5078236;28;20076;-83
2022/10/08 00:49:41;;;;;;;30.05;21.55;;;;;;;11.74;72.07;98883.56;5066069;28;20031;-83
2022/10/08 00:52:06;;;;;;;31.65;20.90;;;;;;;11.74;72.30;98878.06;5083294;28;20032;-82
2022/10/08 00:54:32;;;;;;;31.30;21.30;;;;;;;11.72;72.02;98877.53;5078591;28;20039;-82
2022/10/08 00:56:57;;;;;;;36.65;22.83;;;;;;;11.70;71.91;98871.53;5079583;28;20020;-83
2022/10/08 00:59:25;;;;;;;37.65;23.42;;;;;;;11.70;71.86;98869.59;5089699;28;20492;-83
2022/10/08 01:01:52;;;;;;;34.08;21.52;;;;;;;11.69;72.07;98861.63;5089461;28;20528;-83
2022/10/08 01:04:17;;;;;;;38.17;23.52;;;;;;;11.68;72.50;98855.34;5089537;28;20028;-83
2022/10/08 01:06:48;;;;;;;38.17;24.45;;;;;;;11.67;72.35;98856.44;5089417;28;20036;-83
2022/10/08 01:09:18;;;;;;;39.20;26.15;;;;;;;11.67;72.34;98861.13;5089199;28;20024;-82
2022/10/08 01:11:48;;;;;;;;;;;;;;;11.67;72.13;98858.38;5089064;28;20032;-82
2022/10/08 01:14:15;;;;;;;33.80;22.75;;;;;;;11.68;72.18;98851.75;5089775;28;19965;-83
2022/10/08 01:17:11;;;;;;;35.65;22.25;;;;;;;11.67;72.53;98850.13;5071586;28;20036;-83
2022/10/08 01:19:55;;;;;;;29.92;20.70;;;;;;;11.69;72.58;98847.91;5088890;28;20024;-82
2022/10/08 01:22:56;;;;;;;32.95;20.90;;;;;;;11.67;72.12;98847.38;5089420;28;20099;-83
2022/10/08 01:25:33;;;;;;;34.08;21.55;;;;;;;11.68;72.34;98841.59;5089003;28;20460;-83
2022/10/08 01:28:24;;;;;;;31.88;21.27;;;;;;;11.66;72.52;98834.75;5089224;28;20590;-82
2022/10/08 01:31:12;;;;;;;31.60;19.80;;;;;;;11.65;72.22;98846.84;5089379;28;20036;-82
2022/10/08 01:33:53;;;;;;;29.20;19.98;;;;;;;11.65;72.67;98833.13;5089198;28;20103;-83
2022/10/08 01:36:21;;;;;;;27.33;19.50;;;;;;;11.62;72.51;98838.09;5089705;28;20107;-82
2022/10/08 01:38:52;;;;;;;29.90;19.30;;;;;;;11.61;72.70;98839.19;5087271;28;20016;-82
2022/10/08 01:41:23;;;;;;;30.02;19.05;;;;;;;11.61;72.52;98830.94;5081937;28;20096;-82
2022/10/08 01:43:55;;;;;;;28.83;19.60;;;;;;;11.60;72.93;98834.84;5066924;28;20020;-83
2022/10/08 01:46:26;;;;;;;31.73;19.25;;;;;;;11.61;72.76;98846.63;5090263;28;20063;-82
2022/10/08 01:48:58;;;;;;;31.05;19.38;;;;;;;11.60;72.85;98845.00;5092837;28;20036;-82
2022/10/08 01:51:28;;;;;;;23.60;18.05;;;;;;;11.61;72.63;98846.63;5093045;28;20028;-82
2022/10/08 01:53:54;;;;;;;;;;;;;;;11.62;72.65;98840.03;5089970;28;20031;-82
2022/10/08 01:56:23;;;;;;;25.60;18.05;;;;;;;11.62;72.92;98837.28;5085642;28;19912;-82
2022/10/08 01:59:04;;;;;;;25.47;18.90;;;;;;;11.61;73.36;98835.66;5089653;28;20077;-82
2022/10/08 02:01:42;;;;;;;24.17;17.58;;;;;;;11.61;72.98;98833.69;5082267;28;20048;-81
2022/10/08 02:06:55;;;;;;;27.25;17.95;;;;;;;11.62;73.21;98829.84;5085783;28;20031;-82
2022/10/08 02:09:26;;;;;;;24.55;17.60;;;;;;;11.64;73.51;98836.97;5087750;28;20024;-80
2022/10/08 02:11:51;;;;;;;25.95;18.33;;;;;;;11.65;73.64;98831.19;5086556;28;20031;-82
2022/10/08 02:14:18;;;;;;;25.23;17.23;;;;;;;11.67;73.88;98836.38;5088276;28;20016;-81
2022/10/08 02:16:51;;;;;;;26.80;17.55;;;;;;;11.68;73.45;98832.53;5067672;28;20028;-81
2022/10/08 02:19:32;;;;;;;21.92;16.80;;;;;;;11.70;73.74;98835.81;5082972;28;20048;-76
2022/10/08 02:22:00;;;;;;;25.50;16.92;;;;;;;11.70;73.66;98825.66;5074883;28;20035;-76
2022/10/08 02:24:51;;;;;;;22.45;16.40;;;;;;;11.72;73.37;98830.84;5081034;28;20025;-77
2022/10/08 02:27:25;;;;;;;24.58;16.58;;;;;;;11.72;73.85;98828.91;5069764;28;20036;-76
2022/10/08 02:30:01;;;;;;;20.55;15.35;;;;;;;11.74;73.57;98823.09;5092350;28;20558;-77
2022/10/08 02:32:35;;;;;;;24.20;15.85;;;;;;;11.74;73.23;98825.84;5092223;28;20039;-77
2022/10/08 02:35:10;;;;;;;20.70;14.45;;;;;;;11.74;73.39;98823.94;5087355;28;20241;-77
2022/10/08 02:37:46;;;;;;;20.00;14.35;;;;;;;11.75;73.92;98831.06;5080854;28;20032;-77
2022/10/08 02:40:15;;;;;;;18.63;13.68;;;;;;;11.76;74.24;98827.22;5092354;28;20109;-76
2022/10/08 02:42:45;;;;;;;21.37;14.00;;;;;;;11.76;74.04;98821.72;5074083;28;20028;-77
2022/10/08 02:45:36;;;;;;;19.17;13.40;;;;;;;11.77;73.99;98826.09;5091985;28;20074;-77
2022/10/08 02:48:10;;;;;;;20.88;14.93;;;;;;;11.81;73.59;98826.31;5086826;28;20539;-77
2022/10/08 02:50:38;;;;;;;23.73;15.27;;;;;;;11.80;73.98;98824.69;5091774;28;20024;-77
2022/10/08 02:53:04;;;;;;;20.02;14.95;;;;;;;11.80;74.41;98819.19;5074270;28;20448;-76
2022/10/08 02:55:48;;;;;;;22.30;14.60;;;;;;;11.81;74.06;98829.06;5091906;28;20031;-77
2022/10/08 02:58:14;;;;;;;21.45;14.52;;;;;;;11.82;74.32;98818.91;5092108;28;20099;-77
2022/10/08 03:00:48;;;;;;;18.52;13.25;;;;;;;11.83;73.87;98824.09;5092012;28;20115;-77
2022/10/08 03:03:19;;;;;;;18.45;12.85;;;;;;;11.86;74.28;98822.66;5091567;28;20165;-77
2022/10/08 03:05:47;;;;;;;17.88;12.75;;;;;;;11.87;74.20;98821.56;5091701;28;20032;-77
2022/10/08 03:08:15;;;;;;;20.42;13.27;;;;;;;11.89;74.80;98828.41;5091709;28;20032;-77
2022/10/08 03:10:42;;;;;;;18.17;12.43;;;;;;;11.91;74.55;98825.34;5091294;28;20537;-77
2022/10/08 03:13:09;;;;;;;15.60;12.25;;;;;;;11.93;74.30;98816.81;5091152;28;20023;-77
2022/10/08 03:15:36;;;;;;;18.30;11.68;;;;;;;11.94;74.35;98816.53;5091408;28;20054;-77
2022/10/08 03:18:06;;;;;;;15.98;12.40;;;;;;;11.95;74.41;98817.34;5091418;28;20031;-77
2022/10/08 03:20:32;;;;;;;17.48;12.27;;;;;;;11.96;74.05;98825.28;5091570;28;20049;-77
2022/10/08 03:23:00;;;;;;;16.30;11.65;;;;;;;11.98;74.57;98819.50;5090617;28;20024;-77
2022/10/08 03:25:26;;;;;;;18.20;12.77;;;;;;;11.98;74.19;98830.50;5066784;28;20032;-77
2022/10/08 03:27:51;;;;;;;17.45;12.40;;;;;;;11.98;73.86;98814.00;5090217;28;20035;-76
2022/10/08 03:30:17;;;;;;;14.00;11.63;;;;;;;11.97;74.19;98817.88;5090827;28;20162;-76
2022/10/08 03:32:42;;;;;;;16.55;11.68;;;;;;;11.99;74.25;98818.41;5090090;28;20482;-77
2022/10/08 03:35:07;;;;;;;15.88;11.13;;;;;;;11.97;74.33;98821.44;5090945;28;20032;-76
2022/10/08 03:37:33;;;;;;;14.52;11.18;;;;;;;11.95;73.90;98820.09;5091211;28;20028;-77
2022/10/08 03:39:58;;;;;;;16.50;11.98;;;;;;;11.94;73.82;98821.22;5090909;28;20036;-77
2022/10/08 03:42:24;;;;;;;13.82;11.55;;;;;;;11.91;73.82;98817.09;5090467;28;20035;-77
2022/10/08 03:44:49;;;;;;;15.68;11.63;;;;;;;11.89;73.86;98820.16;5091177;28;20032;-77
2022/10/08 03:47:14;;;;;;;14.95;11.23;;;;;;;11.88;73.99;98812.19;5091779;28;20044;-77
2022/10/08 03:49:40;;;;;;;16.58;11.63;;;;;;;11.86;74.17;98818.00;5091836;28;20499;-77
2022/10/08 03:52:05;;;;;;;16.30;12.13;;;;;;;11.84;74.32;98817.50;5090346;28;20043;-77
2022/10/08 03:54:33;;;;;;;15.20;11.23;;;;;;;11.82;74.28;98811.47;5090538;28;20059;-77
2022/10/08 03:56:59;;;;;;;16.23;11.80;;;;;;;11.81;73.74;98809.03;5091621;28;20047;-77
2022/10/08 03:59:24;;;;;;;16.77;13.02;;;;;;;11.77;73.80;98811.53;5088065;28;20016;-77
2022/10/08 04:01:49;;;;;;;23.83;15.70;;;;;;;11.75;74.02;98811.00;5090426;28;20108;-77
2022/10/08 04:04:15;;;;;;;23.75;15.27;;;;;;;11.73;73.78;98803.06;5091114;28;20024;-77
2022/10/08 04:06:40;;;;;;;19.50;14.95;;;;;;;11.72;73.66;98800.59;5091229;28;20056;-77
2022/10/08 04:09:06;;;;;;;22.38;15.82;;;;;;;11.70;73.73;98795.41;5073210;28;20107;-77
2022/10/08 04:11:31;;;;;;;23.55;16.20;;;;;;;11.69;73.60;98799.28;5090581;28;20032;-77
2022/10/08 04:13:56;;;;;;;23.10;17.52;;;;;;;11.67;73.58;98797.91;5090575;28;20058;-77
2022/10/08 04:16:22;;;;;;;27.48;17.02;;;;;;;11.64;73.32;98795.75;5090739;28;20514;-77
2022/10/08 04:18:47;;;;;;;23.20;16.67;;;;;;;11.60;73.48;98795.53;5091319;28;20024;-77
2022/10/08 04:21:15;;;;;;;24.50;17.15;;;;;;;11.57;73.86;98791.47;5090990;28;20020;-77
2022/10/08 04:23:42;;;;;;;22.55;17.30;;;;;;;11.55;73.54;98798.34;5090663;28;20028;-77
2022/10/08 04:26:09;;;;;;;25.95;17.60;;;;;;;11.52;73.57;98790.69;5089539;28;20070;-77
2022/10/08 04:28:35;;;;;;;22.05;16.95;;;;;;;11.47;73.43;98795.16;5091216;28;20038;-77
2022/10/08 04:31:13;;;;;;;25.00;17.63;;;;;;;11.44;73.70;98790.25;5091218;28;20484;-77
2022/10/08 04:33:38;;;;;;;23.45;17.42;;;;;;;11.42;73.80;98795.22;5090288;28;20024;-77
2022/10/08 04:36:12;;;;;;;23.27;17.20;;;;;;;11.38;73.16;98801.59;5090641;28;20379;-77
2022/10/08 04:38:38;;;;;;;22.77;16.48;;;;;;;11.33;73.09;98797.00;5090855;28;20037;-77
2022/10/08 04:41:04;;;;;;;21.95;16.40;;;;;;;11.27;73.17;98796.22;5090108;28;20024;-77
2022/10/08 04:43:30;;;;;;;24.77;16.20;;;;;;;11.24;73.65;98790.50;5089542;28;20024;-77
2022/10/08 04:45:55;;;;;;;22.15;15.57;;;;;;;11.23;73.48;98797.09;5090473;28;20357;-77
2022/10/08 04:48:21;;;;;;;23.10;15.60;;;;;;;11.21;73.25;98794.63;5090973;28;20430;-77
2022/10/08 04:50:46;;;;;;;20.33;15.63;;;;;;;11.20;73.03;98793.03;5072753;28;20043;-77
2022/10/08 04:53:12;;;;;;;21.52;15.98;;;;;;;11.22;73.16;98795.47;5089803;28;20511;-77
2022/10/08 04:55:38;;;;;;;22.02;16.83;;;;;;;11.24;73.42;98790.50;5090355;28;20107;-77
2022/10/08 04:58:03;;;;;;;22.77;15.32;;;;;;;11.25;73.65;98790.19;5072430;28;20099;-77
2022/10/08 05:00:29;;;;;;;21.83;15.43;;;;;;;11.28;73.26;98788.81;5090571;28;20028;-76
2022/10/08 05:02:54;;;;;;;21.73;15.10;;;;;;;11.29;73.36;98796.75;5089759;28;20392;-76
2022/10/08 05:05:19;;;;;;;23.30;15.57;;;;;;;11.29;73.38;98794.00;5090469;28;20024;-76
2022/10/08 05:07:45;;;;;;;23.25;15.82;;;;;;;11.32;73.30;98793.41;5090436;28;20078;-76
2022/10/08 05:10:10;;;;;;;22.80;16.92;;;;;;;11.35;74.14;98782.94;5090607;28;20029;-77
2022/10/08 05:12:36;;;;;;;22.15;16.02;;;;;;;11.39;74.00;98795.00;5089849;28;20039;-77
2022/10/08 05:15:01;;;;;;;25.17;16.42;;;;;;;11.43;73.84;98788.59;5094581;28;20032;-77
2022/10/08 05:17:26;;;;;;;20.73;15.60;;;;;;;11.49;73.99;98788.53;5094575;28;20054;-77
2022/10/08 05:19:52;;;;;;;19.35;13.52;;;;;;;11.54;74.25;98785.72;5094529;28;20089;-77
2022/10/08 05:22:17;;;;;;;20.13;14.88;;;;;;;11.60;74.15;98784.56;5093665;28;20511;-77
2022/10/08 05:24:43;;;;;;;18.80;14.15;;;;;;;11.67;73.90;98786.94;5094406;28;20157;-77
2022/10/08 05:27:08;;;;;;;21.45;14.95;;;;;;;11.74;74.43;98790.13;5092229;28;20456;-77
2022/10/08 05:29:33;;;;;;;20.08;14.02;;;;;;;11.79;74.45;98784.56;5094566;28;20109;-77
2022/10/08 05:31:59;;;;;;;18.17;14.13;;;;;;;11.88;74.43;98792.97;5093663;28;20028;-77
2022/10/08 05:34:24;;;;;;;22.40;14.93;;;;;;;11.95;74.46;98785.16;5094335;28;20024;-77
2022/10/08 05:36:50;;;;;;;21.13;14.80;;;;;;;12.01;75.00;98786.75;5076038;28;20031;-77
2022/10/08 05:39:15;;;;;;;22.33;14.77;;;;;;;12.10;74.90;98791.59;5094241;28;20464;-77
2022/10/08 05:41:40;;;;;;;21.70;14.07;;;;;;;12.16;74.93;98799.47;5093810;28;20082;-77
2022/10/08 05:44:07;;;;;;;23.80;15.50;;;;;;;12.23;75.11;98799.06;5075499;28;20056;-77
2022/10/08 05:46:34;;;;;;;24.08;16.63;;;;;;;12.30;74.83;98801.47;5093949;28;20104;-77
2022/10/08 05:49:02;;;;;;;23.55;16.35;;;;;;;12.35;75.17;98804.94;5093185;28;20521;-77
2022/10/08 05:51:28;;;;;;;23.27;15.27;;;;;;;12.40;75.28;98806.81;5093953;28;20089;-77
2022/10/08 05:53:58;;;;;;;22.23;15.30;;;;;;;12.43;75.18;98800.69;5093217;28;20031;-77
2022/10/08 05:56:24;;;;;;;22.85;15.55;;;;;;;12.44;75.00;98801.50;5093576;28;20048;-77
2022/10/08 05:58:50;;;;;;;22.05;16.10;;;;;;;12.48;74.82;98799.78;5094077;28;20502;-77
2022/10/08 06:01:25;;;;;;;22.15;15.68;;;;;;;12.44;74.75;98796.00;5094051;28;20110;-77
2022/10/08 06:03:51;;;;;;;23.75;16.42;;;;;;;12.43;74.73;98791.63;5093408;28;20024;-77
2022/10/08 06:06:17;;;;;;;18.90;14.52;;;;;;;12.43;74.86;98799.88;5093586;28;20020;-77
2022/10/08 06:08:42;;;;;;;21.88;14.48;;;;;;;12.47;74.74;98807.22;5093693;28;20031;-77
2022/10/08 06:11:08;;;;;;;22.63;14.82;;;;;;;12.50;75.13;98805.81;5093548;28;20028;-77
2022/10/08 06:13:34;;;;;;;20.33;14.45;;;;;;;12.50;74.41;98801.13;5092841;28;20028;-77
2022/10/08 06:16:03;;;;;;;19.55;13.75;;;;;;;12.53;74.91;98809.88;5093598;28;20028;-77
2022/10/08 06:18:32;;;;;;;19.65;13.55;;;;;;;12.55;74.84;98807.66;5093506;28;20472;-77
2022/10/08 06:21:05;;;;;;;19.13;13.40;;;;;;;12.58;74.96;98810.63;5093651;28;20145;-77
2022/10/08 06:23:31;;;;;;;18.73;12.90;;;;;;;12.62;74.75;98817.19;5092985;28;20502;-77
2022/10/08 06:26:04;;;;;;;20.13;13.73;;;;;;;12.65;74.70;98810.25;5091212;28;20038;-77
2022/10/08 06:28:30;;;;;;;18.15;13.38;;;;;;;12.70;75.02;98812.91;5093910;28;20028;-77
2022/10/08 06:30:58;;;;;;;19.98;13.75;;;;;;;12.73;74.60;98811.47;5093230;28;20067;-77
2022/10/08 06:33:23;;;;;;;20.38;13.63;;;;;;;12.77;74.78;98809.75;5074695;28;20055;-77
2022/10/08 06:35:49;;;;;;;19.77;13.65;;;;;;;12.82;75.01;98806.91;5093058;28;20476;-77
2022/10/08 06:38:14;;;;;;;20.88;13.68;;;;;;;12.89;74.93;98814.78;5074409;28;20024;-76
2022/10/08 06:40:39;;;;;;;20.52;14.38;;;;;;;12.95;75.07;98821.81;5092292;28;20028;-78
2022/10/08 06:43:13;;;;;;;19.70;14.63;;;;;;;13.02;74.92;98813.19;5092645;28;20055;-77
2022/10/08 06:45:39;;;;;;;21.80;15.27;;;;;;;13.05;74.98;98816.13;5092582;28;20110;-77
2022/10/08 06:48:04;;;;;;;24.50;15.32;;;;;;;13.09;74.94;98816.31;5092984;28;20119;-77
2022/10/08 06:50:30;;;;;;;23.70;16.48;;;;;;;13.11;74.77;98822.34;5086217;28;20026;-77
2022/10/08 06:52:56;;;;;;;24.02;16.98;;;;;;;13.11;74.85;98825.09;5074486;28;20063;-77
2022/10/08 06:55:21;;;;;;;22.52;15.30;;;;;;;13.14;74.69;98821.75;5092666;28;20035;-77
2022/10/08 06:57:46;;;;;;;24.98;16.10;;;;;;;13.15;74.77;98828.09;5092960;28;20024;-77
2022/10/08 07:00:12;;;;;;;23.55;17.00;;;;;;;13.14;74.85;98827.25;5092704;28;20026;-78
2022/10/08 07:02:38;;;;;;;24.98;17.33;;;;;;;13.18;75.06;98830.22;5074024;28;20028;-78
2022/10/08 07:05:03;;;;;;;22.38;16.67;;;;;;;13.21;74.83;98830.44;5074689;28;20020;-77
2022/10/08 07:07:29;;;;;;;23.83;16.65;;;;;;;13.25;75.01;98828.69;5092781;28;20031;-77
2022/10/08 07:09:54;;;;;;;23.83;15.98;;;;;;;13.31;74.97;98823.91;5092427;28;20036;-77
2022/10/08 07:12:19;;;;;;;22.35;15.98;;;;;;;13.37;75.01;98828.19;5092129;28;20112;-78
2022/10/08 07:14:45;;;;;;;21.10;14.38;;;;;;;13.43;75.02;98831.72;5092584;28;20059;-77
2022/10/08 07:17:10;;;;;;;20.75;14.70;;;;;;;13.50;75.09;98825.78;5092578;28;20032;-77
2022/10/08 07:19:35;;;;;;;20.80;14.70;;;;;;;13.56;75.30;98827.31;5092681;28;20024;-78
2022/10/08 07:22:01;;;;;;;20.02;14.05;;;;;;;13.61;75.02;98821.69;5092016;28;20024;-77
2022/10/08 07:24:26;;;;;;;18.92;14.00;;;;;;;13.66;75.35;98820.75;5092394;28;20445;-78
2022/10/08 07:26:52;;;;;;;18.45;12.25;;;;;;;13.73;75.50;98820.34;5070355;28;20038;-76
2022/10/08 07:29:17;;;;;;;20.65;13.10;;;;;;;13.80;74.79;98821.56;5092313;28;20019;-76
2022/10/08 07:31:43;;;;;;;15.38;11.70;;;;;;;13.87;74.80;98823.91;5092048;28;20468;-76
2022/10/08 07:34:12;;;;;;;20.25;13.20;;;;;;;13.97;75.09;98817.34;5092761;28;20049;-76
2022/10/08 07:36:38;;;;;;;19.53;13.97;;;;;;;14.07;75.39;98817.13;5091095;28;20077;-76
2022/10/08 07:39:06;;;;;;;19.30;12.85;;;;;;;14.19;75.35;98816.56;5092310;28;20028;-76
2022/10/08 07:41:33;;;;;;;18.10;13.02;;;;;;;14.31;75.46;98812.44;5091635;28;20024;-76
2022/10/08 07:44:00;;;;;;;19.17;12.35;;;;;;;14.40;75.24;98813.34;5073635;28;20500;-76
2022/10/08 07:46:30;;;;;;;19.50;13.40;;;;;;;14.50;75.14;98815.81;5091767;28;20169;-76
2022/10/08 07:49:00;;;;;;;18.77;12.73;;;;;;;14.62;74.88;98818.03;5092035;28;20035;-76
2022/10/08 07:51:26;;;;;;;;;;;;;;;14.73;74.86;98813.09;5092063;28;20031;-76
2022/10/08 07:53:51;;;;;;;16.85;12.65;;;;;;;14.82;74.90;98808.44;5090952;28;19915;-77
2022/10/08 07:56:19;;;;;;;19.60;13.13;;;;;;;14.92;74.70;98810.13;5091763;28;20024;-77
2022/10/08 07:58:46;;;;;;;19.45;13.38;;;;;;;15.05;75.14;98821.41;5091950;28;20020;-76
2022/10/08 08:01:14;;;;;;;18.80;13.05;;;;;;;15.17;74.86;98810.56;5073609;28;20074;-76
2022/10/08 08:03:40;;;;;;;17.98;13.15;;;;;;;15.28;74.89;98814.66;5091459;28;20032;-77
2022/10/08 08:06:08;;;;;;;20.13;12.88;;;;;;;15.41;74.78;98807.41;5073405;28;20511;-76
2022/10/08 08:08:35;;;;;;;18.15;12.77;;;;;;;15.52;74.72;98812.63;5091396;28;20031;-77
2022/10/08 08:11:03;;;;;;;19.20;12.88;;;;;;;15.61;74.63;98802.44;5087213;28;20024;-77
2022/10/08 08:13:30;;;;;;;18.40;13.48;;;;;;;15.66;74.31;98799.53;5091086;28;20028;-77
2022/10/08 08:16:01;;;;;;;20.13;12.77;;;;;;;15.72;74.37;98795.44;5091382;28;20032;-76
2022/10/08 08:18:28;;;;;;;17.80;12.75;;;;;;;15.81;73.92;98803.78;5091508;28;20047;-78
2022/10/08 08:21:02;;;;;;;16.45;12.10;;;;;;;15.87;74.03;98808.03;5091476;28;20028;-78
2022/10/08 08:23:42;;;;;;;20.95;12.95;;;;;;;15.96;73.81;98808.06;5091290;28;20031;-77
2022/10/08 08:26:14;;;;;;;16.45;11.40;;;;;;;16.04;73.82;98812.78;5089124;28;20024;-78
2022/10/08 08:28:40;;;;;;;16.00;11.38;;;;;;;16.13;73.84;98804.47;5091355;28;20027;-78
2022/10/08 08:31:16;;;;;;;18.25;11.40;;;;;;;16.18;73.24;98809.84;5091383;28;20036;-78
2022/10/08 08:33:48;;;;;;;13.55;10.50;;;;;;;16.20;72.87;98804.81;5090787;28;20032;-79
2022/10/08 08:36:14;;;;;;;14.82;10.57;;;;;;;16.23;72.60;98808.88;5073019;28;20057;-78
2022/10/08 08:38:40;;;;;;;14.82;10.45;;;;;;;16.29;72.63;98812.31;5073321;28;20024;-78
2022/10/08 08:41:33;;;;;;;14.50;9.65;;;;;;;16.30;72.41;98806.44;5091359;28;20073;-78
2022/10/08 08:44:01;;;;;;;12.05;8.68;;;;;;;16.36;72.42;98805.13;5091196;28;20043;-79
2022/10/08 08:46:31;;;;;;;12.55;9.38;;;;;;;16.43;72.09;98804.63;5090845;28;20044;-79
2022/10/08 08:49:01;;;;;;;13.52;9.95;;;;;;;16.46;71.86;98805.94;5090962;28;20106;-79
2022/10/08 08:51:27;;;;;;;12.68;8.63;;;;;;;16.51;71.75;98811.28;5091397;28;20028;-78
2022/10/08 08:53:53;;;;;;;12.48;8.82;;;;;;;16.55;71.39;98808.69;5090796;28;20472;-79
2022/10/08 10:26:59;;;;;;;11.10;9.27;;;;;;;17.10;70.51;98765.56;5108365;27;20477;-85
2022/10/08 10:29:33;;;;;;;11.15;8.73;;;;;;;17.33;70.06;98770.81;5088191;28;20074;-85
2022/10/08 10:32:05;;;;;;;9.80;8.57;;;;;;;17.53;69.08;98781.16;5088199;28;20413;-82
2022/10/08 10:34:36;;;;;;;11.75;8.77;;;;;;;17.70;69.17;98766.38;5088465;28;20036;-87
2022/10/08 10:37:07;;;;;;;12.23;9.05;;;;;;;17.93;69.05;98777.16;5089050;28;20021;-87
2022/10/08 10:39:50;;;;;;;9.80;7.82;;;;;;;18.16;69.06;98757.44;5088126;28;20082;-87
2022/10/08 10:42:31;;;;;;;12.57;8.70;;;;;;;18.38;68.70;98769.31;5088086;28;20074;-87
2022/10/08 10:45:15;;;;;;;12.20;7.88;;;;;;;18.56;67.97;98761.59;5088327;28;20028;-88
2022/10/08 10:47:41;;;;;;;11.60;8.05;;;;;;;18.63;65.56;98761.88;5088008;28;20381;-87
2022/10/08 10:50:24;;;;;;;10.50;7.63;;;;;;;18.64;64.74;98754.38;5087722;28;20013;-86
2022/10/08 10:53:13;;;;;;;13.30;8.95;;;;;;;18.64;64.86;98754.38;5088141;28;20092;-87
2022/10/08 10:55:54;;;;;;;12.50;8.25;;;;;;;18.58;64.99;98754.56;5088493;28;20385;-87
2022/10/08 10:58:49;;;;;;;12.32;8.60;;;;;;;18.55;63.57;98746.09;5088272;28;20478;-85
2022/10/08 11:01:27;;;;;;;13.77;8.18;;;;;;;18.52;64.16;98749.59;5088364;28;20032;-85
2022/10/08 11:04:14;;;;;;;12.10;8.82;;;;;;;18.48;64.05;98738.34;5088647;28;20028;-85
2022/10/08 11:07:01;;;;;;;10.55;8.10;;;;;;;18.50;63.75;98746.34;5088529;28;20036;-85
2022/10/08 11:09:39;;;;;;;12.20;10.30;;;;;;;18.53;63.70;98732.56;5088809;28;20060;-86
2022/10/08 11:12:23;;;;;;;13.60;8.43;;;;;;;18.59;64.13;98736.75;5069978;28;20061;-88
2022/10/08 11:15:13;;;;;;;11.90;8.40;;;;;;;18.66;64.07;98738.16;5088229;28;20024;-84
2022/10/08 11:18:02;;;;;;;14.07;9.27;;;;;;;18.70;64.10;98739.91;5088053;28;20105;-86
2022/10/08 11:20:38;;;;;;;;;;;;;;;18.71;62.86;98732.38;5088120;28;20028;-87
2022/10/08 11:23:12;;;;;;;12.32;8.80;;;;;;;18.64;63.01;98738.50;5087618;28;19960;-89
2022/10/08 11:25:53;;;;;;;10.27;8.52;;;;;;;18.59;63.57;98735.94;5086864;28;20059;-88
2022/10/08 11:28:32;;;;;;;10.75;8.65;;;;;;;18.58;63.18;98735.13;5074383;28;20370;-88
2022/10/08 11:31:32;;;;;;;12.00;8.70;;;;;;;18.56;63.58;98731.88;5074058;28;20055;-87
2022/10/08 11:33:58;;;;;;;11.27;8.60;;;;;;;18.54;63.43;98727.84;5074120;28;20028;-88
2022/10/08 11:36:55;;;;;;;10.80;7.97;;;;;;;18.56;64.05;98726.34;5070088;28;20033;-87
2022/10/08 11:40:01;;;;;;;12.05;8.88;;;;;;;18.54;62.89;98731.41;5073670;28;20060;-83
2022/10/08 11:43:03;;;;;;;14.50;9.57;;;;;;;18.45;62.83;98722.34;4991616;28;20037;-84
2022/10/08 11:45:33;;;;;;;12.63;9.40;;;;;;;18.38;62.61;98717.38;5073675;28;20071;-83
2022/10/08 11:48:00;;;;;;;13.57;8.30;;;;;;;18.33;63.05;98719.56;5073971;28;20473;-83
2022/10/08 11:50:31;;;;;;;13.30;9.55;;;;;;;18.30;63.04;98721.88;5073501;28;20024;-83
2022/10/08 11:53:19;;;;;;;12.75;9.18;;;;;;;18.29;62.74;98722.19;5073218;28;20059;-80
2022/10/08 11:55:54;;;;;;;11.98;9.27;;;;;;;18.28;63.02;98712.25;5073448;28;20024;-82
2022/10/08 11:58:32;;;;;;;13.23;10.70;;;;;;;18.29;62.78;98711.91;5055315;28;20052;-81
2022/10/08 12:01:06;;;;;;;12.20;9.68;;;;;;;18.30;62.96;98710.75;5073051;28;20021;-83
2022/10/08 12:03:37;;;;;;;14.30;9.13;;;;;;;18.33;62.87;98700.13;5072872;28;20043;-83
2022/10/08 12:06:22;;;;;;;16.52;9.90;;;;;;;18.34;62.69;98705.31;5073027;28;20021;-85
2022/10/08 12:09:05;;;;;;;11.07;8.68;;;;;;;18.41;63.06;98700.03;5073231;28;20052;-82
2022/10/08 12:11:30;;;;;;;11.52;9.35;;;;;;;18.50;63.31;98693.56;5073021;28;20028;-84
2022/10/08 12:14:11;;;;;;;11.73;9.50;;;;;;;18.57;62.47;98699.34;5073002;28;20040;-83
2022/10/08 12:16:46;;;;;;;13.35;9.52;;;;;;;18.57;62.40;98694.63;5073009;28;20036;-84
2022/10/08 12:19:36;;;;;;;12.60;9.32;;;;;;;18.59;62.96;98702.59;5073535;28;20036;-85
2022/10/08 12:22:15;;;;;;;11.35;9.18;;;;;;;18.60;62.41;98702.28;5073019;28;20067;-87
2022/10/08 12:24:42;;;;;;;14.95;9.38;;;;;;;18.60;62.05;98696.72;5052172;28;20025;-87
2022/10/08 12:27:17;;;;;;;12.73;9.27;;;;;;;18.60;62.39;98693.13;5055244;28;20046;-87
2022/10/08 12:30:04;;;;;;;11.25;9.18;;;;;;;18.60;62.56;98685.59;5073104;28;20142;-86
2022/10/08 12:32:34;;;;;;;12.65;9.60;;;;;;;18.62;62.50;98684.44;5072526;28;20545;-87
2022/10/08 12:35:00;;;;;;;11.38;8.45;;;;;;;18.63;62.58;98689.66;5073106;28;20074;-87
2022/10/08 12:37:40;;;;;;;18.42;14.60;;;;;;;18.66;62.79;98683.41;5072016;28;20051;-86
2022/10/08 12:40:21;;;;;;;16.55;9.95;;;;;;;18.72;63.06;98690.38;5071808;28;20020;-87
2022/10/08 12:42:49;;;;;;;20.05;9.98;;;;;;;18.76;62.99;98687.69;5055042;28;20052;-87
2022/10/08 12:45:29;;;;;;;10.43;8.40;;;;;;;18.83;63.16;98684.34;5072751;28;20483;-88
2022/10/08 12:48:14;;;;;;;16.08;9.82;;;;;;;18.91;62.93;98683.44;5054841;28;20029;-85
2022/10/08 12:50:55;;;;;;;11.38;8.82;;;;;;;19.00;62.85;98677.78;5073160;28;20031;-85
2022/10/08 12:53:21;;;;;;;13.10;8.95;;;;;;;19.07;62.20;98679.97;5072798;28;20030;-85
2022/10/08 12:55:53;;;;;;;16.08;8.88;;;;;;;19.13;62.38;98681.38;5072619;28;20108;-86
2022/10/08 12:58:36;;;;;;;13.50;9.48;;;;;;;19.19;62.04;98683.56;5072563;28;20016;-86
2022/10/08 13:01:04;;;;;;;11.38;9.20;;;;;;;19.25;61.73;98689.72;5072789;28;20426;-85
2022/10/08 13:03:29;;;;;;;13.85;9.45;;;;;;;19.18;61.41;98687.50;5071687;28;20135;-85
2022/10/08 13:05:56;;;;;;;11.48;9.05;;;;;;;19.15;61.11;98684.63;5072429;28;20115;-84
2022/10/08 13:08:37;;;;;;;11.65;8.98;;;;;;;19.17;61.47;98691.44;5072423;28;20039;-83